createdAt,value
2018-07-25T00:02:17.775Z,99.99
2018-07-25T00:12:17.139Z,99.99
2018-07-25T00:22:15.846Z,99.99
2018-07-25T00:32:13.762Z,99.99
2018-07-25T00:42:08.452Z,99.99
2018-07-25T00:52:06.569Z,99.99
2018-07-25T01:02:01.814Z,99.99
2018-07-25T01:11:54.214Z,99.99
2018-07-25T01:21:52.018Z,99.99
2018-07-25T01:31:47.975Z,99.99
2018-07-25T01:41:45.911Z,99.99
2018-07-25T01:51:44.473Z,99.99
2018-07-25T02:01:42.916Z,99.99
2018-07-25T02:11:36.633Z,99.99
2018-07-25T02:21:33.868Z,99.99
2018-07-25T02:31:31.164Z,99.99
2018-07-25T02:41:25.263Z,99.99
2018-07-25T02:51:24.821Z,99.99
2018-07-25T03:01:22.320Z,99.99
2018-07-25T03:11:20.002Z,99.99
2018-07-25T03:21:18.759Z,99.99
2018-07-25T03:31:15.659Z,99.99
2018-07-25T03:41:11.305Z,99.99
2018-07-25T03:51:07.316Z,99.99
2018-07-25T04:01:05.097Z,99.99
2018-07-25T04:11:01.225Z,99.99
2018-07-25T04:20:59.395Z,99.99
2018-07-25T04:30:57.001Z,99.99
2018-07-25T04:40:55.153Z,99.24
2018-07-25T04:50:55.287Z,99.49
2018-07-25T05:00:54.646Z,99.99
2018-07-25T05:10:52.371Z,95.30
2018-07-25T05:20:50.458Z,97.09
2018-07-25T05:30:48.660Z,95.86
2018-07-25T05:40:47.438Z,95.21
2018-07-25T05:50:41.463Z,93.92
2018-07-25T06:00:39.750Z,93.83
2018-07-25T06:10:34.370Z,93.29
2018-07-25T06:20:30.353Z,92.60
2018-07-25T06:30:25.140Z,89.73
2018-07-25T06:40:24.024Z,86.87
2018-07-25T06:50:18.990Z,89.01
2018-07-25T07:00:16.967Z,86.58
2018-07-25T07:10:11.360Z,85.35
2018-07-25T07:20:10.137Z,86.60
2018-07-25T07:30:07.906Z,85.23
2018-07-25T07:40:02.828Z,82.51
2018-07-25T07:49:59.964Z,78.78
2018-07-25T07:59:59.045Z,78.90
2018-07-25T08:09:54.507Z,77.87
2018-07-25T08:19:52.105Z,76.89
2018-07-25T08:29:45.732Z,72.97
2018-07-25T08:39:41.471Z,70.37
2018-07-25T08:49:40.988Z,70.47
2018-07-25T08:59:37.823Z,72.64
2018-07-25T09:09:33.780Z,72.54
2018-07-25T09:19:32.099Z,68.63
2018-07-25T09:29:30.806Z,66.72
2018-07-25T09:39:29.739Z,65.97
2018-07-25T09:49:25.649Z,65.61
2018-07-25T09:59:22.189Z,67.61
2018-07-25T10:09:17.047Z,69.32
2018-07-25T10:19:14.626Z,68.30
2018-07-25T10:29:13.712Z,65.78
2018-07-25T10:38:51.978Z,66.63
2018-07-25T10:48:30.234Z,67.51
2018-07-25T10:58:07.660Z,69.55
2018-07-25T11:07:46.234Z,66.72
2018-07-25T11:17:23.975Z,66.66
2018-07-25T11:27:01.471Z,64.01
2018-07-25T11:36:39.775Z,63.26
2018-07-25T11:46:18.383Z,61.28
2018-07-25T11:55:55.627Z,64.66
2018-07-25T12:05:34.586Z,59.88
2018-07-25T12:15:14.340Z,58.72
2018-07-25T12:24:49.426Z,63.94
2018-07-25T12:44:02.220Z,67.18
2018-07-25T12:53:38.605Z,68.13
2018-07-25T13:03:16.778Z,63.91
2018-07-25T13:12:58.359Z,61.07
2018-07-25T13:22:38.483Z,62.38
2018-07-25T13:32:15.444Z,62.76
2018-07-25T13:42:09.541Z,68.16
2018-07-25T13:51:49.101Z,66.14
2018-07-25T14:01:47.720Z,69.54
2018-07-25T14:11:40.931Z,69.67
2018-07-25T14:21:37.950Z,73.47
2018-07-25T14:31:31.358Z,73.77
2018-07-25T14:41:28.292Z,77.20
2018-07-25T14:51:26.909Z,75.48
2018-07-25T15:01:29.304Z,74.55
2018-07-25T15:11:28.094Z,70.35
2018-07-25T15:21:33.162Z,67.67
2018-07-25T15:31:24.385Z,65.78
2018-07-25T15:41:13.908Z,71.62
2018-07-25T15:51:07.757Z,72.75
2018-07-25T16:01:04.622Z,73.61
2018-07-25T16:10:54.832Z,75.38
2018-07-25T16:20:48.219Z,76.31
2018-07-25T16:30:45.380Z,77.92
2018-07-25T16:40:39.842Z,77.00
2018-07-25T16:50:34.499Z,78.61
2018-07-25T17:00:32.333Z,79.40
2018-07-25T17:10:29.423Z,78.99
2018-07-25T17:20:21.420Z,85.71
2018-07-25T17:30:18.371Z,89.90
2018-07-25T17:40:14.218Z,87.87
2018-07-25T17:50:07.908Z,91.47
2018-07-25T18:00:06.208Z,92.65
2018-07-25T18:10:00.097Z,95.42
2018-07-25T18:19:54.127Z,99.99
2018-07-25T18:29:49.551Z,98.13
2018-07-25T18:39:31.703Z,98.72
2018-07-25T18:49:29.714Z,99.77
2018-07-25T18:59:23.059Z,99.99
2018-07-25T19:09:17.630Z,99.99
2018-07-25T19:19:13.466Z,99.99
2018-07-25T19:29:10.672Z,99.99
2018-07-25T19:39:06.395Z,99.99
2018-07-25T19:49:00.421Z,96.63
2018-07-25T19:58:53.018Z,99.99
2018-07-25T20:08:50.068Z,99.99
2018-07-25T20:18:44.983Z,99.99
2018-07-25T20:28:38.127Z,97.28
2018-07-25T20:38:34.657Z,98.47
2018-07-25T20:48:32.200Z,88.40
2018-07-25T20:58:29.923Z,87.54
2018-07-25T21:08:24.487Z,90.71
2018-07-25T21:18:19.780Z,97.16
2018-07-25T21:28:14.971Z,99.99
2018-07-25T21:38:11.898Z,99.99
2018-07-25T21:48:06.417Z,99.99
2018-07-25T21:58:04.121Z,99.99
2018-07-25T22:08:01.313Z,99.99
2018-07-25T22:17:54.610Z,99.99
2018-07-25T22:27:52.501Z,99.99
2018-07-25T22:37:49.869Z,99.99
2018-07-25T22:47:47.011Z,99.99
2018-07-25T22:57:45.112Z,99.99
2018-07-25T23:07:42.671Z,99.99
2018-07-25T23:17:37.555Z,99.99
2018-07-25T23:27:35.924Z,99.99
2018-07-25T23:37:31.916Z,99.15
2018-07-25T23:47:27.094Z,99.99
2018-07-25T23:57:22.257Z,97.95
